Itasca, Illinois
Current Conditions -  °F | °C
As of 3:51 AM on Saturday 22 Nov 2014 (Local Time) from KORD Reporting Station
Moderate Rain Moderate Rain  
Wind Chill: 24°   Ceiling: 600
Heat Index: 33°   Visibility: 3mi
Dew Point: 31°   Wind: 13mph
Humidity: 92%   Direction: 210°SSW
Pressure: 30.07"   Gusts: NA
Location:  41.97°N, 88.02°W
Report Text: KORD 220951Z 21011KT 3SM RA BR OVC006 01/M01 A3007 RMK AO2 SLP188 DZE0852RAB0852 P0003 T00061006
Loading
Personal Weather Stations






























Interactive Weather Map New forecast layout! Learn more

10-Day Weather Forecast

Advertisements
Track Severe Weather on mobile